Time;durP1;ratioP1;P1;durP2;ratioP2;P2;SDS_P1;SDS_P2;PMS_P1;PMS_P2;Temp;Humidity;BMP_temperature;BMP_pressure;BME280_temperature;BME280_humidity;BME280_pressure;Samples;Min_cycle;Max_cycle;Signal;HPM_P1;HPM_P2
2021/12/06 00:00:55;;;;;;;8.70;3.75;;;;;;;-1.09;100.00;94595.69;4996550;28;20088;-78
2021/12/06 00:03:27;;;;;;;6.63;3.40;;;;;;;-1.10;100.00;94603.66;5012955;28;20053;-79
2021/12/06 00:05:53;;;;;;;6.95;3.42;;;;;;;-1.08;100.00;94596.47;4999788;28;20066;-78
2021/12/06 00:08:18;;;;;;;8.00;3.60;;;;;;;-0.97;100.00;94603.47;5008715;28;20741;-78
2021/12/06 00:10:49;;;;;;;6.25;3.10;;;;;;;-1.08;100.00;94596.47;5014226;28;20141;-78
2021/12/06 00:13:15;;;;;;;11.55;3.85;;;;;;;-1.08;100.00;94599.06;5014174;28;20049;-78
2021/12/06 00:15:43;;;;;;;6.75;3.10;;;;;;;-0.98;100.00;94601.13;5013665;28;20400;-80
2021/12/06 00:18:09;;;;;;;7.97;3.13;;;;;;;-0.95;100.00;94606.66;5014112;28;20499;-80
2021/12/06 00:20:34;;;;;;;7.13;3.60;;;;;;;-1.00;100.00;94603.91;5013764;28;20050;-78
2021/12/06 00:23:00;;;;;;;7.93;3.63;;;;;;;-1.07;100.00;94613.53;5013385;28;20045;-80
2021/12/06 00:25:25;;;;;;;8.52;3.30;;;;;;;-1.12;100.00;94621.16;5001224;28;20594;-80
2021/12/06 00:27:51;;;;;;;7.68;3.50;;;;;;;-1.36;100.00;94615.88;5011721;28;20053;-80
2021/12/06 00:30:17;;;;;;;7.78;3.20;;;;;;;-1.31;100.00;94628.91;4995704;28;20045;-80
2021/12/06 00:32:44;;;;;;;6.60;3.65;;;;;;;-1.02;100.00;94631.78;4994333;28;20041;-79
2021/12/06 00:35:17;;;;;;;7.07;3.30;;;;;;;-1.01;100.00;94627.38;5007568;28;20042;-79
2021/12/06 00:37:53;;;;;;;6.72;3.30;;;;;;;-1.01;100.00;94625.56;4994266;28;20082;-78
2021/12/06 00:40:19;;;;;;;7.35;3.30;;;;;;;-0.92;100.00;94626.88;4977911;28;20046;-79
2021/12/06 00:42:45;;;;;;;10.50;3.35;;;;;;;-1.03;100.00;94630.19;5004302;28;20407;-80
2021/12/06 00:45:11;;;;;;;9.30;3.58;;;;;;;-1.22;100.00;94632.78;5002061;28;20053;-79
2021/12/06 00:47:36;;;;;;;7.95;3.67;;;;;;;-1.28;100.00;94636.25;5006219;28;20069;-79
2021/12/06 00:50:06;;;;;;;5.35;3.17;;;;;;;-1.15;100.00;94637.06;4975243;28;20042;-78
2021/12/06 00:52:32;;;;;;;6.13;3.22;;;;;;;-0.99;100.00;94633.91;5005217;28;20045;-78
2021/12/06 00:54:58;;;;;;;9.48;3.60;;;;;;;-0.92;100.00;94637.19;5008463;28;20034;-78
2021/12/06 00:57:24;;;;;;;7.57;3.53;;;;;;;-0.99;100.00;94640.84;5008921;28;20048;-79
2021/12/06 00:59:50;;;;;;;6.93;3.42;;;;;;;-1.23;100.00;94646.69;4998466;28;20109;-79
2021/12/06 01:02:16;;;;;;;8.85;3.97;;;;;;;-1.58;100.00;94649.84;5009274;28;20057;-79
2021/12/06 01:04:43;;;;;;;11.75;3.95;;;;;;;-1.66;100.00;94649.34;4991671;28;20042;-79
2021/12/06 01:07:09;;;;;;;8.98;4.20;;;;;;;-1.43;100.00;94648.72;4987544;28;20051;-79
2021/12/06 01:09:36;;;;;;;10.95;3.70;;;;;;;-1.28;100.00;94649.16;5000277;28;20040;-80
2021/12/06 01:12:02;;;;;;;8.48;4.32;;;;;;;-1.20;100.00;94644.69;5006635;28;20541;-80
2021/12/06 01:14:27;;;;;;;10.82;3.67;;;;;;;-1.24;100.00;94650.28;5006324;28;20050;-80
2021/12/06 01:16:53;;;;;;;6.43;3.88;;;;;;;-1.21;100.00;94659.38;4982003;28;20096;-79
2021/12/06 01:19:19;;;;;;;6.72;3.35;;;;;;;-1.26;100.00;94652.28;4995917;28;20045;-80
2021/12/06 01:21:52;;;;;;;7.85;4.07;;;;;;;-1.62;100.00;94664.19;5005267;28;20046;-78
2021/12/06 01:24:24;;;;;;;10.88;4.32;;;;;;;-1.71;100.00;94660.31;4991969;28;20416;-80
2021/12/06 01:28:14;;;;;;;12.30;4.47;;;;;;;-1.72;100.00;94669.06;5004965;28;20144;-79
2021/12/06 01:40:46;;;;;;;11.93;4.30;;;;;;;-1.57;100.00;94682.41;4928632;29;20059;-79
2021/12/06 01:43:11;;;;;;;10.60;4.25;;;;;;;-1.50;100.00;94689.28;4960429;28;20113;-80
2021/12/06 01:45:37;;;;;;;12.93;5.00;;;;;;;-1.45;100.00;94689.41;5009895;28;20164;-80
2021/12/06 01:48:03;;;;;;;10.15;4.40;;;;;;;-1.47;100.00;94697.38;4991947;28;20053;-79
2021/12/06 01:50:29;;;;;;;11.38;3.90;;;;;;;-1.40;100.00;94692.94;4992857;28;20125;-80
2021/12/06 01:52:59;;;;;;;6.93;3.97;;;;;;;-1.40;100.00;94697.31;4993493;28;20133;-80
2021/12/06 01:55:31;;;;;;;9.18;4.10;;;;;;;-1.55;100.00;94700.25;5004154;28;20042;-78
2021/12/06 01:57:58;;;;;;;10.77;3.78;;;;;;;-1.41;100.00;94693.97;4991522;28;20097;-79
2021/12/06 02:00:33;;;;;;;8.63;3.92;;;;;;;-1.30;100.00;94702.78;4996449;28;20084;-78
2021/12/06 02:02:59;;;;;;;8.98;3.45;;;;;;;-1.33;100.00;94698.03;4994452;28;20762;-80
2021/12/06 02:05:25;;;;;;;8.02;4.57;;;;;;;-1.27;100.00;94698.97;5005625;28;20054;-78
2021/12/06 02:07:51;;;;;;;9.23;4.30;;;;;;;-1.33;100.00;94703.22;5000423;28;20522;-79
2021/12/06 02:10:17;;;;;;;11.65;4.30;;;;;;;-1.28;100.00;94705.13;4988541;28;20484;-80
2021/12/06 02:12:45;;;;;;;9.02;4.80;;;;;;;-1.32;100.00;94709.94;5012858;28;20045;-78
2021/12/06 02:15:33;;;;;;;10.55;4.13;;;;;;;-1.31;100.00;94711.50;5000311;28;20046;-79
2021/12/06 02:18:12;;;;;;;12.32;4.55;;;;;;;-1.18;100.00;94714.97;5006346;28;20049;-79
2021/12/06 02:21:25;;;;;;;18.08;8.27;;;;;;;-1.10;100.00;94712.88;5008624;28;20049;-78
2021/12/06 02:23:28;;;;;;;20.83;8.40;;;;;;;-0.99;100.00;94716.56;5001631;28;20057;-80
2021/12/06 02:25:55;;;;;;;22.23;10.25;;;;;;;-0.89;100.00;94714.25;5011591;28;20042;-78
2021/12/06 02:28:21;;;;;;;27.95;13.15;;;;;;;-0.87;100.00;94717.41;5010681;28;20096;-80
2021/12/06 02:30:47;;;;;;;28.00;11.80;;;;;;;-0.85;100.00;94711.22;5013018;28;20479;-78
2021/12/06 02:33:12;;;;;;;25.45;11.48;;;;;;;-0.84;100.00;94710.22;4998528;28;20049;-78
2021/12/06 02:35:38;;;;;;;31.10;13.55;;;;;;;-0.83;100.00;94711.78;5013661;28;20104;-78
2021/12/06 02:38:07;;;;;;;29.83;11.70;;;;;;;-0.84;100.00;94716.19;4999682;28;20432;-79
2021/12/06 02:40:35;;;;;;;33.47;13.43;;;;;;;-0.83;100.00;94716.97;4997333;28;20068;-80
2021/12/06 02:43:04;;;;;;;30.42;12.10;;;;;;;-0.87;100.00;94722.56;5012838;28;20112;-80
2021/12/06 02:45:31;;;;;;;31.75;12.50;;;;;;;-0.84;100.00;94725.72;5010192;28;20076;-79
2021/12/06 02:47:59;;;;;;;28.95;11.93;;;;;;;-0.61;100.00;94731.00;4995635;28;20061;-78
2021/12/06 02:50:31;;;;;;;29.08;12.05;;;;;;;-0.54;100.00;94731.72;5002183;28;20042;-80
2021/12/06 02:52:57;;;;;;;27.35;11.65;;;;;;;-0.63;100.00;94733.03;5011222;28;20042;-78
2021/12/06 02:55:32;;;;;;;26.85;10.90;;;;;;;-0.66;100.00;94728.31;5009253;28;20038;-80
2021/12/06 02:58:02;;;;;;;23.15;10.05;;;;;;;-0.50;100.00;94726.09;4993671;28;20046;-78
2021/12/06 03:00:28;;;;;;;23.05;10.43;;;;;;;-0.52;100.00;94739.25;5011449;28;20066;-79
2021/12/06 03:02:54;;;;;;;24.25;10.32;;;;;;;-0.55;100.00;94735.31;4995695;28;20046;-80
2021/12/06 03:05:20;;;;;;;26.48;10.80;;;;;;;-0.48;100.00;94739.59;5011864;28;20050;-78
2021/12/06 03:07:53;;;;;;;23.52;10.07;;;;;;;-0.50;100.00;94739.81;4994334;28;20736;-77
2021/12/06 03:10:18;;;;;;;24.45;10.13;;;;;;;-0.50;100.00;94746.78;4994274;28;20046;-79
2021/12/06 03:12:44;;;;;;;21.80;10.15;;;;;;;-0.58;100.00;94751.25;4994224;28;20061;-78
2021/12/06 03:15:11;;;;;;;22.92;10.85;;;;;;;-0.56;100.00;94748.44;4993962;28;20053;-79
2021/12/06 03:17:36;;;;;;;22.30;9.63;;;;;;;-0.56;100.00;94751.81;5007345;28;20045;-78
2021/12/06 03:20:09;;;;;;;21.23;10.07;;;;;;;-0.43;100.00;94753.47;5011406;28;20041;-78
2021/12/06 03:22:35;;;;;;;20.25;9.73;;;;;;;-0.42;100.00;94754.22;5013977;28;20085;-78
2021/12/06 03:25:05;;;;;;;24.38;10.80;;;;;;;-0.36;100.00;94758.53;5012828;28;20068;-78
2021/12/06 03:27:31;;;;;;;28.95;11.48;;;;;;;-0.42;100.00;94756.81;4994946;28;20555;-78
2021/12/06 03:29:56;;;;;;;23.38;10.05;;;;;;;-0.38;100.00;94761.31;4978086;28;20057;-78
2021/12/06 03:32:22;;;;;;;22.33;10.73;;;;;;;-0.48;100.00;94760.28;4993692;28;20125;-78
2021/12/06 03:34:48;;;;;;;24.42;10.60;;;;;;;-0.58;100.00;94766.75;4991243;28;20113;-77
2021/12/06 03:37:13;;;;;;;23.48;10.60;;;;;;;-0.65;100.00;94763.44;5003602;28;20496;-80
2021/12/06 03:39:46;;;;;;;24.02;10.95;;;;;;;-0.61;100.00;94761.22;5003746;28;20084;-78
2021/12/06 03:42:14;;;;;;;24.35;10.77;;;;;;;-0.55;100.00;94763.75;5013366;28;20053;-80
2021/12/06 03:44:41;;;;;;;22.92;10.32;;;;;;;-0.59;100.00;94770.34;5012811;28;20100;-80
2021/12/06 03:47:11;;;;;;;21.52;9.40;;;;;;;-0.55;100.00;94776.66;4977613;28;20050;-78
2021/12/06 03:49:38;;;;;;;24.80;10.30;;;;;;;-0.48;100.00;94768.03;4985715;28;20053;-78
2021/12/06 03:52:05;;;;;;;22.92;9.63;;;;;;;-0.49;100.00;94769.03;5013832;28;20042;-78
2021/12/06 03:54:31;;;;;;;21.38;9.88;;;;;;;-0.62;100.00;94778.53;5004805;28;20042;-78
2021/12/06 03:56:58;;;;;;;20.95;9.13;;;;;;;-0.61;100.00;94776.75;4993845;28;20046;-78
2021/12/06 03:59:25;;;;;;;21.88;8.75;;;;;;;-0.52;100.00;94780.59;4985521;28;20038;-78
2021/12/06 04:01:51;;;;;;;20.10;9.45;;;;;;;-0.60;100.00;94779.09;5013398;28;20037;-79
2021/12/06 04:04:17;;;;;;;20.10;8.77;;;;;;;-0.67;100.00;94783.56;5008593;28;20045;-78
2021/12/06 04:06:43;;;;;;;24.15;10.80;;;;;;;-0.59;100.00;94791.03;5010323;28;20045;-78
2021/12/06 04:09:09;;;;;;;20.90;9.45;;;;;;;-0.48;100.00;94783.56;4994696;28;20045;-79
2021/12/06 04:11:36;;;;;;;22.90;9.90;;;;;;;-0.44;100.00;94795.03;4995164;28;20034;-79
2021/12/06 04:14:03;;;;;;;23.15;10.35;;;;;;;-0.45;100.00;94793.44;5010792;28;20033;-79
2021/12/06 04:16:29;;;;;;;24.88;10.40;;;;;;;-0.57;100.00;94804.50;5009072;28;20061;-79
2021/12/06 04:18:55;;;;;;;24.25;11.07;;;;;;;-0.52;100.00;94803.84;4995803;28;20034;-78
2021/12/06 04:21:21;;;;;;;23.75;10.82;;;;;;;-0.44;100.00;94810.53;5011262;28;20061;-79
2021/12/06 04:23:47;;;;;;;25.50;11.27;;;;;;;-0.44;100.00;94807.97;5014388;28;20096;-79
2021/12/06 04:26:13;;;;;;;30.73;11.88;;;;;;;-0.42;100.00;94806.72;4999060;28;20053;-79
2021/12/06 04:28:43;;;;;;;26.55;10.43;;;;;;;-0.40;100.00;94811.69;5001295;28;20037;-79
2021/12/06 04:31:09;;;;;;;24.00;10.65;;;;;;;-0.39;100.00;94815.84;5014098;28;20052;-79
2021/12/06 04:33:35;;;;;;;24.98;11.02;;;;;;;-0.42;100.00;94817.06;4987865;28;20069;-79
2021/12/06 04:36:01;;;;;;;26.60;10.82;;;;;;;-0.40;100.00;94819.44;5004546;28;20048;-79
2021/12/06 04:38:27;;;;;;;28.15;12.13;;;;;;;-0.39;100.00;94815.84;5006631;28;20052;-78
2021/12/06 04:40:53;;;;;;;30.63;12.63;;;;;;;-0.50;100.00;94824.31;5006978;28;20039;-80
2021/12/06 04:43:18;;;;;;;31.20;12.63;;;;;;;-0.65;100.00;94822.88;4992657;28;20511;-80
2021/12/06 04:45:44;;;;;;;27.77;12.77;;;;;;;-0.40;100.00;94832.38;5007204;28;20073;-79
2021/12/06 04:48:10;;;;;;;28.67;12.82;;;;;;;-0.33;100.00;94825.34;4994234;28;20046;-79
2021/12/06 04:50:37;;;;;;;31.20;14.25;;;;;;;-0.35;100.00;94828.09;4986147;28;20045;-79
2021/12/06 04:53:11;;;;;;;31.02;13.38;;;;;;;-0.36;100.00;94830.91;5011585;28;20045;-79
2021/12/06 04:55:58;;;;;;;27.30;13.93;;;;;;;-0.30;100.00;94835.25;5012185;28;20531;-79
2021/12/06 04:58:30;;;;;;;30.20;12.85;;;;;;;-0.31;100.00;94838.81;5010875;28;20057;-79
2021/12/06 05:01:06;;;;;;;29.92;12.10;;;;;;;-0.37;100.00;94839.69;5012841;28;20034;-79
2021/12/06 05:03:33;;;;;;;31.38;13.20;;;;;;;-0.42;100.00;94847.31;4989215;28;20134;-79
2021/12/06 05:06:12;;;;;;;29.02;12.52;;;;;;;-0.36;100.00;94851.59;4994262;28;20050;-79
2021/12/06 05:08:42;;;;;;;34.25;13.77;;;;;;;-0.42;100.00;94852.47;4992291;28;20499;-79
2021/12/06 05:11:09;;;;;;;35.72;13.77;;;;;;;-0.39;100.00;94857.19;5007913;28;20072;-79
2021/12/06 05:13:38;;;;;;;31.40;12.68;;;;;;;-0.41;100.00;94869.56;5014027;28;20072;-79
2021/12/06 05:16:04;;;;;;;31.30;13.05;;;;;;;-0.37;100.00;94860.38;5000911;28;20120;-78
2021/12/06 05:18:29;;;;;;;29.02;12.20;;;;;;;-0.34;100.00;94867.69;5009769;28;20503;-79
2021/12/06 05:20:55;;;;;;;42.25;13.35;;;;;;;-0.43;100.00;94866.41;5013069;28;20044;-78
2021/12/06 05:23:21;;;;;;;36.00;14.13;;;;;;;-0.43;100.00;94863.81;4987941;28;20056;-79
2021/12/06 05:25:47;;;;;;;32.13;12.25;;;;;;;-0.38;100.00;94869.91;5012481;28;20046;-79
2021/12/06 05:28:13;;;;;;;34.08;13.15;;;;;;;-0.50;100.00;94865.69;5013207;28;20049;-79
2021/12/06 05:30:40;;;;;;;31.25;12.32;;;;;;;-0.38;100.00;94879.47;4984904;28;20064;-79
2021/12/06 05:33:09;;;;;;;31.13;12.88;;;;;;;-0.33;100.00;94882.22;5010290;28;20149;-79
2021/12/06 05:35:35;;;;;;;28.00;12.23;;;;;;;-0.31;100.00;94882.78;5010514;28;20053;-79
2021/12/06 05:38:02;;;;;;;31.52;12.63;;;;;;;-0.42;100.00;94883.50;5008399;28;20522;-79
2021/12/06 05:40:32;;;;;;;32.88;12.75;;;;;;;-0.36;100.00;94882.63;5011806;28;20056;-79
2021/12/06 05:43:00;;;;;;;27.10;11.38;;;;;;;-0.51;100.00;94884.78;4976484;28;20042;-79
2021/12/06 05:45:28;;;;;;;37.22;13.32;;;;;;;-0.47;100.00;94880.78;4986097;28;20088;-79
2021/12/06 05:47:54;;;;;;;30.45;11.85;;;;;;;-0.39;100.00;94894.22;4990248;28;20045;-78
2021/12/06 05:50:23;;;;;;;30.77;11.98;;;;;;;-0.36;100.00;94893.78;5007750;28;20050;-78
2021/12/06 05:52:52;;;;;;;29.73;11.63;;;;;;;-0.38;100.00;94898.34;4998352;28;20450;-78
2021/12/06 05:55:19;;;;;;;28.98;11.77;;;;;;;-0.43;100.00;94902.59;5008983;28;20045;-79
2021/12/06 05:57:45;;;;;;;31.38;11.93;;;;;;;-0.53;100.00;94909.06;5008724;28;20046;-79
2021/12/06 06:00:15;;;;;;;27.13;10.82;;;;;;;-0.54;100.00;94917.81;5009883;28;20042;-79
2021/12/06 06:02:41;;;;;;;26.90;11.48;;;;;;;-0.36;100.00;94918.81;5010518;28;20061;-79
2021/12/06 06:05:08;;;;;;;28.60;11.38;;;;;;;-0.38;100.00;94919.03;5009878;28;20057;-79
2021/12/06 06:07:34;;;;;;;28.20;11.93;;;;;;;-0.48;100.00;94923.13;5009800;28;20483;-79
2021/12/06 06:10:00;;;;;;;26.95;10.88;;;;;;;-0.47;100.00;94922.91;4993367;28;20045;-79
2021/12/06 06:12:25;;;;;;;34.22;12.35;;;;;;;-0.60;100.00;94929.00;5011970;28;20046;-79
2021/12/06 06:14:52;;;;;;;31.17;12.02;;;;;;;-0.59;100.00;94938.34;5009347;28;20043;-79
2021/12/06 06:17:19;;;;;;;33.40;11.75;;;;;;;-0.63;100.00;94939.78;5007554;28;20038;-79
2021/12/06 06:19:56;;;;;;;28.90;11.90;;;;;;;-0.50;100.00;94948.38;4996082;28;20502;-79
2021/12/06 06:22:22;;;;;;;31.90;12.18;;;;;;;-0.62;100.00;94951.66;5010976;28;20049;-79
2021/12/06 06:24:48;;;;;;;32.50;13.45;;;;;;;-0.62;100.00;94951.66;5005415;28;20103;-79
2021/12/06 06:27:13;;;;;;;32.75;12.85;;;;;;;-0.59;100.00;94961.59;5011320;28;20549;-79
2021/12/06 06:29:39;;;;;;;34.80;13.18;;;;;;;-0.62;100.00;94967.19;5017083;28;20046;-79
2021/12/06 06:32:07;;;;;;;38.85;13.68;;;;;;;-0.65;100.00;94972.78;4996583;28;20038;-79
2021/12/06 06:34:33;;;;;;;35.85;13.90;;;;;;;-0.69;100.00;94976.78;5001016;28;20042;-79
2021/12/06 06:37:00;;;;;;;41.72;13.90;;;;;;;-0.69;100.00;94971.59;5001092;28;20042;-79
2021/12/06 06:39:26;;;;;;;35.03;12.18;;;;;;;-0.61;100.00;94979.09;5006686;28;20045;-79
2021/12/06 06:41:52;;;;;;;36.50;13.75;;;;;;;-0.57;100.00;94980.25;5007925;28;20042;-77
2021/12/06 06:44:20;;;;;;;37.22;13.48;;;;;;;-0.57;100.00;94988.03;4999201;28;20053;-77
2021/12/06 06:46:47;;;;;;;37.65;14.02;;;;;;;-0.51;100.00;94983.00;4998679;28;20152;-78
2021/12/06 06:49:13;;;;;;;40.75;13.40;;;;;;;-0.50;100.00;94989.75;5004995;28;20046;-78
2021/12/06 06:51:40;;;;;;;37.72;13.68;;;;;;;-0.38;100.00;94998.41;5010645;28;20041;-78
2021/12/06 06:54:06;;;;;;;29.95;12.68;;;;;;;-0.49;100.00;94991.34;5004462;28;20034;-77
2021/12/06 06:56:32;;;;;;;34.92;12.93;;;;;;;-0.59;100.00;94997.78;5010008;28;20038;-79
2021/12/06 06:58:58;;;;;;;34.10;13.88;;;;;;;-0.67;100.00;95005.03;5006957;28;20030;-78
2021/12/06 07:01:24;;;;;;;38.80;14.93;;;;;;;-0.63;100.00;95009.53;5003130;28;20734;-79
2021/12/06 07:03:53;;;;;;;45.58;14.60;;;;;;;-0.50;100.00;95006.06;4995666;28;20081;-79
2021/12/06 07:06:23;;;;;;;40.28;13.95;;;;;;;-0.61;100.00;95012.69;5006190;28;20037;-79
2021/12/06 07:08:49;;;;;;;35.22;13.07;;;;;;;-0.42;100.00;95017.91;4986685;28;20658;-78
2021/12/06 07:11:15;;;;;;;36.38;14.20;;;;;;;-0.41;100.00;95016.94;5004924;28;20113;-78
2021/12/06 07:13:42;;;;;;;38.55;14.50;;;;;;;-0.60;100.00;95022.03;5002493;28;20038;-79
2021/12/06 07:16:09;;;;;;;35.72;14.40;;;;;;;-0.48;100.00;95018.78;5004001;28;20081;-79
2021/12/06 07:18:35;;;;;;;34.92;13.93;;;;;;;-0.54;100.00;95026.38;5010172;28;20714;-77
2021/12/06 07:21:01;;;;;;;33.88;13.13;;;;;;;-0.38;100.00;95034.59;5010912;28;20044;-78
2021/12/06 07:23:27;;;;;;;35.17;14.02;;;;;;;-0.49;100.00;95043.03;5006214;28;20049;-79
2021/12/06 07:25:52;;;;;;;34.83;14.38;;;;;;;-0.55;100.00;95040.31;4995849;28;20049;-77
2021/12/06 07:28:18;;;;;;;40.20;15.32;;;;;;;-0.59;100.00;95046.91;5009125;28;20439;-76
2021/12/06 07:30:44;;;;;;;43.28;15.50;;;;;;;-0.41;100.00;95050.53;5001022;28;20047;-78
2021/12/06 07:33:09;;;;;;;40.90;16.08;;;;;;;-0.47;100.00;95052.16;5002331;28;20546;-77
2021/12/06 07:35:35;;;;;;;43.67;15.30;;;;;;;-0.48;100.00;95054.97;5008401;28;20049;-77
2021/12/06 07:38:03;;;;;;;47.28;15.40;;;;;;;-0.48;100.00;95054.97;5005037;28;20053;-78
2021/12/06 07:40:31;;;;;;;40.60;15.70;;;;;;;-0.50;100.00;95062.13;4994576;28;20488;-78
2021/12/06 07:42:57;;;;;;;42.00;15.45;;;;;;;-0.53;100.00;95066.72;5010696;28;20053;-79
2021/12/06 07:45:24;;;;;;;42.50;15.43;;;;;;;-0.49;100.00;95066.31;5009749;28;20034;-80
2021/12/06 07:47:49;;;;;;;39.83;14.35;;;;;;;-0.51;100.00;95068.31;5009459;28;20126;-79
2021/12/06 07:50:18;;;;;;;43.65;14.93;;;;;;;-0.50;100.00;95069.88;5012581;28;20045;-80
2021/12/06 07:52:44;;;;;;;46.15;15.55;;;;;;;-0.54;100.00;95072.88;5014228;28;20068;-79
2021/12/06 07:55:13;;;;;;;48.65;17.52;;;;;;;-0.51;100.00;95063.16;5005609;28;20056;-79
2021/12/06 07:57:39;;;;;;;44.55;15.25;;;;;;;-0.48;100.00;95075.66;5010340;28;20045;-79
2021/12/06 08:00:11;;;;;;;48.88;15.57;;;;;;;-0.47;100.00;95072.06;5012272;28;20392;-78
2021/12/06 08:02:38;;;;;;;42.72;15.65;;;;;;;-0.29;100.00;95074.69;5008216;28;20053;-79
2021/12/06 08:05:29;;;;;;;44.58;15.07;;;;;;;-0.39;100.00;95079.53;4989183;28;20381;-78
2021/12/06 08:07:57;;;;;;;40.72;15.80;;;;;;;-0.33;100.00;95081.31;5011782;28;20076;-77
2021/12/06 08:10:23;;;;;;;47.58;16.35;;;;;;;-0.36;100.00;95071.38;5009946;28;20041;-80
2021/12/06 08:12:49;;;;;;;41.80;15.70;;;;;;;-0.27;100.00;95077.88;4996747;28;20609;-78
2021/12/06 08:15:14;;;;;;;41.67;15.07;;;;;;;-0.05;100.00;95082.66;5007054;28;20049;-79
2021/12/06 08:17:40;;;;;;;44.33;13.90;;;;;;;0.02;100.00;95080.81;5013831;28;20034;-78
2021/12/06 08:20:09;;;;;;;40.33;14.05;;;;;;;0.12;100.00;95088.88;5001050;28;20064;-79
2021/12/06 08:22:35;;;;;;;33.42;13.80;;;;;;;0.10;100.00;95088.31;5001951;28;20125;-79
2021/12/06 08:25:01;;;;;;;36.35;13.70;;;;;;;-0.01;100.00;95086.41;4997347;28;20038;-78
2021/12/06 08:27:27;;;;;;;38.75;14.93;;;;;;;-0.09;100.00;95099.59;4981184;28;20118;-78
2021/12/06 08:29:53;;;;;;;41.40;15.77;;;;;;;-0.16;100.00;95098.88;5017329;28;20524;-79
2021/12/06 08:32:19;;;;;;;38.67;14.98;;;;;;;-0.02;100.00;95095.16;5009590;28;20042;-78
2021/12/06 08:34:44;;;;;;;36.42;14.35;;;;;;;-0.08;100.00;95101.19;5003570;28;20355;-78
2021/12/06 08:37:11;;;;;;;41.42;15.88;;;;;;;-0.19;100.00;95103.47;5008021;28;20041;-79
2021/12/06 08:39:37;;;;;;;40.88;17.05;;;;;;;-0.15;100.00;95100.47;4999655;28;20068;-79
2021/12/06 08:42:04;;;;;;;38.85;15.93;;;;;;;-0.16;100.00;95109.22;5013849;28;20547;-79
2021/12/06 08:44:30;;;;;;;42.42;16.65;;;;;;;-0.01;100.00;95122.63;4996501;28;20126;-79
2021/12/06 08:46:55;;;;;;;36.92;15.13;;;;;;;-0.07;100.00;95113.09;5006583;28;20120;-79
2021/12/06 08:49:21;;;;;;;42.50;15.73;;;;;;;-0.03;100.00;95101.34;4997321;28;20091;-79
2021/12/06 08:51:50;;;;;;;39.50;15.52;;;;;;;0.02;100.00;95111.84;5013077;28;20042;-78
2021/12/06 08:54:18;;;;;;;44.05;17.40;;;;;;;-0.11;100.00;95114.56;4996322;28;20034;-79
2021/12/06 08:56:45;;;;;;;41.78;16.50;;;;;;;-0.05;100.00;95121.47;5004083;28;20038;-78
2021/12/06 08:59:12;;;;;;;40.53;16.20;;;;;;;-0.08;100.00;95119.31;4987516;28;20705;-79
2021/12/06 09:01:39;;;;;;;38.08;16.45;;;;;;;-0.23;100.00;95130.75;5002503;28;20050;-80
2021/12/06 09:04:08;;;;;;;37.15;15.65;;;;;;;-0.26;100.00;95131.19;5004641;28;20043;-80
2021/12/06 09:06:35;;;;;;;42.80;15.68;;;;;;;-0.23;100.00;95141.09;4994570;28;20401;-80
2021/12/06 09:09:05;;;;;;;39.78;15.25;;;;;;;-0.10;100.00;95144.56;4989774;28;20045;-79
2021/12/06 09:11:31;;;;;;;46.72;17.23;;;;;;;-0.14;100.00;95148.56;4976464;28;20038;-80
2021/12/06 09:13:56;;;;;;;37.15;15.80;;;;;;;-0.12;100.00;95151.75;5008182;28;20045;-78
2021/12/06 09:16:22;;;;;;;38.03;15.52;;;;;;;0.05;100.00;95146.84;5009495;28;20065;-78
2021/12/06 09:18:48;;;;;;;37.40;15.27;;;;;;;0.10;100.00;95147.00;5011875;28;20050;-78
2021/12/06 09:21:18;;;;;;;36.25;14.65;;;;;;;0.14;100.00;95146.38;5008661;28;20084;-78
2021/12/06 09:23:44;;;;;;;34.95;13.43;;;;;;;0.12;100.00;95153.56;4991251;28;20057;-78
2021/12/06 09:26:11;;;;;;;26.50;11.00;;;;;;;0.11;100.00;95151.97;4997012;28;20046;-79
2021/12/06 09:28:37;;;;;;;33.25;13.23;;;;;;;0.08;100.00;95154.97;5008064;28;20056;-78
2021/12/06 09:31:04;;;;;;;32.90;13.15;;;;;;;-0.01;100.00;95148.50;5001932;28;20039;-78
2021/12/06 09:33:31;;;;;;;32.33;12.73;;;;;;;0.01;100.00;95151.66;5010125;28;20042;-79
2021/12/06 09:35:59;;;;;;;30.55;12.55;;;;;;;0.15;100.00;95158.28;4993143;28;20066;-78
2021/12/06 09:38:34;;;;;;;28.45;11.65;;;;;;;0.31;100.00;95148.41;5000677;28;20050;-79
2021/12/06 09:41:02;;;;;;;23.88;10.13;;;;;;;0.31;100.00;95156.19;5012331;28;20052;-79
2021/12/06 09:43:28;;;;;;;31.40;12.20;;;;;;;0.15;100.00;95145.34;5027289;28;20046;-80
2021/12/06 09:45:54;;;;;;;30.63;12.77;;;;;;;0.23;100.00;95151.28;4995422;28;20045;-79
2021/12/06 09:48:21;;;;;;;25.90;11.38;;;;;;;0.23;100.00;95148.69;4995264;28;20053;-78
2021/12/06 09:50:51;;;;;;;31.75;11.57;;;;;;;0.28;100.00;95141.09;5003055;28;20042;-77
2021/12/06 09:53:20;;;;;;;27.05;11.60;;;;;;;0.19;100.00;95134.56;5007692;28;20070;-77
2021/12/06 09:55:49;;;;;;;29.90;11.95;;;;;;;0.16;100.00;95134.00;5013280;28;20046;-78
2021/12/06 09:58:15;;;;;;;28.60;11.85;;;;;;;0.21;100.00;95135.19;5008611;28;20049;-78
2021/12/06 10:00:50;;;;;;;20.58;9.25;;;;;;;0.37;100.00;95144.97;5008309;28;20053;-75
2021/12/06 10:03:22;;;;;;;27.85;12.43;;;;;;;0.38;100.00;95138.78;5007986;28;20088;-77
2021/12/06 10:05:47;;;;;;;27.88;11.60;;;;;;;0.32;100.00;95157.78;5004399;28;20117;-76
2021/12/06 10:08:13;;;;;;;26.45;11.60;;;;;;;0.44;100.00;95144.91;4988040;28;20129;-76
2021/12/06 10:10:39;;;;;;;29.65;12.57;;;;;;;0.33;100.00;95141.22;5000955;28;20046;-77
2021/12/06 10:13:06;;;;;;;24.77;10.52;;;;;;;0.47;100.00;95140.09;5002051;28;20583;-76
2021/12/06 10:15:31;;;;;;;34.47;11.95;;;;;;;0.54;100.00;95139.25;5006898;28;20095;-76
2021/12/06 10:18:01;;;;;;;24.73;10.75;;;;;;;0.50;100.00;95134.50;5002271;28;20042;-77
2021/12/06 10:20:30;;;;;;;29.02;11.30;;;;;;;0.46;100.00;95138.53;4999552;28;20046;-77
2021/12/06 10:22:56;;;;;;;30.58;12.05;;;;;;;0.41;100.00;95135.78;5007127;28;20519;-77
2021/12/06 10:25:37;;;;;;;28.73;11.35;;;;;;;0.33;100.00;95138.63;4983461;28;20408;-77
2021/12/06 10:28:05;;;;;;;32.55;12.52;;;;;;;0.35;100.00;95131.47;4999063;28;20034;-77
2021/12/06 10:30:39;;;;;;;33.03;12.20;;;;;;;0.42;100.00;95137.38;4979825;28;20121;-77
2021/12/06 10:33:14;;;;;;;34.42;12.90;;;;;;;0.45;100.00;95136.94;5005165;28;20073;-77
2021/12/06 10:35:48;;;;;;;29.65;12.55;;;;;;;0.39;100.00;95142.97;5000746;28;20112;-77
2021/12/06 10:38:23;;;;;;;30.92;12.38;;;;;;;0.26;100.00;95137.91;5001277;28;20038;-77
2021/12/06 10:40:49;;;;;;;31.30;11.95;;;;;;;0.41;100.00;95140.94;5010969;28;20046;-77
2021/12/06 10:43:16;;;;;;;28.48;11.77;;;;;;;0.34;100.00;95140.22;4993294;28;20050;-77
2021/12/06 10:45:49;;;;;;;29.63;11.80;;;;;;;0.32;100.00;95137.06;5007581;28;20648;-77
2021/12/06 10:48:18;;;;;;;31.10;12.77;;;;;;;0.44;100.00;95145.69;4999608;28;20046;-77
2021/12/06 10:50:55;;;;;;;37.03;13.50;;;;;;;0.47;100.00;95145.25;5008681;28;20053;-77
2021/12/06 10:53:32;;;;;;;28.83;12.25;;;;;;;0.46;100.00;95148.88;5009498;28;20050;-78
2021/12/06 10:55:58;;;;;;;27.92;11.23;;;;;;;0.33;100.00;95148.97;5006248;28;20135;-76
2021/12/06 10:58:27;;;;;;;32.95;13.40;;;;;;;0.31;100.00;95145.81;5005886;28;20038;-78
2021/12/06 11:01:06;;;;;;;33.70;13.25;;;;;;;0.39;100.00;95153.31;5008354;28;20045;-78
2021/12/06 11:03:33;;;;;;;32.05;12.90;;;;;;;0.32;100.00;95152.59;4995399;28;20112;-79
2021/12/06 11:06:01;;;;;;;29.30;12.50;;;;;;;0.35;100.00;95147.00;4990471;28;20721;-77
2021/12/06 11:08:28;;;;;;;33.78;12.02;;;;;;;0.29;100.00;95142.69;5005853;28;20531;-78
2021/12/06 11:11:00;;;;;;;29.60;11.95;;;;;;;0.34;100.00;95142.81;5012222;28;20065;-78
2021/12/06 11:13:36;;;;;;;35.47;14.90;;;;;;;0.44;100.00;95156.03;4992685;28;20108;-77
2021/12/06 11:16:12;;;;;;;32.78;13.82;;;;;;;0.47;100.00;95150.44;5006371;28;20050;-77
2021/12/06 11:18:46;;;;;;;34.10;14.32;;;;;;;0.44;100.00;95158.63;5005457;28;20042;-78
2021/12/06 11:21:22;;;;;;;33.05;13.35;;;;;;;0.28;100.00;95161.78;5010464;28;20042;-78
2021/12/06 11:24:16;;;;;;;31.40;12.30;;;;;;;0.35;100.00;95147.00;5013148;28;20046;-78
2021/12/06 11:26:53;;;;;;;31.23;11.47;;;;;;;0.55;100.00;95156.34;5005911;28;20049;-79
2021/12/06 11:29:32;;;;;;;28.35;12.68;;;;;;;0.56;100.00;95157.94;5010219;28;20042;-77